createdAt,value
2018-11-25T00:01:03.156Z,6.70
2018-11-25T00:06:06.719Z,6.50
2018-11-25T00:11:10.425Z,6.30
2018-11-25T00:16:14.042Z,6.10
2018-11-25T00:21:19.722Z,6.00
2018-11-25T00:26:23.970Z,5.80
2018-11-25T00:31:27.860Z,5.70
2018-11-25T00:36:31.493Z,5.70
2018-11-25T00:41:35.105Z,5.60
2018-11-25T00:46:38.717Z,5.50
2018-11-25T00:51:42.376Z,5.40
2018-11-25T00:56:45.961Z,5.40
2018-11-25T01:01:49.550Z,5.50
2018-11-25T01:06:53.268Z,5.50
2018-11-25T01:11:56.809Z,5.40
2018-11-25T01:17:00.433Z,5.40
2018-11-25T01:22:04.054Z,5.50
2018-11-25T01:27:07.603Z,5.40
2018-11-25T01:32:11.193Z,5.50
2018-11-25T01:37:15.053Z,5.70
2018-11-25T01:42:18.621Z,5.80
2018-11-25T01:47:22.247Z,5.90
2018-11-25T01:52:25.810Z,6.00
2018-11-25T01:57:29.361Z,6.20
2018-11-25T02:02:33.436Z,6.30
2018-11-25T02:07:37.037Z,6.40
2018-11-25T02:12:41.463Z,6.40
2018-11-25T02:17:45.061Z,6.30
2018-11-25T02:22:49.800Z,6.40
2018-11-25T02:27:53.407Z,6.60
2018-11-25T02:32:56.963Z,6.70
2018-11-25T02:38:00.569Z,6.60
2018-11-25T02:48:32.786Z,6.50
2018-11-25T02:53:36.348Z,6.40
2018-11-25T02:58:40.008Z,6.50
2018-11-25T03:03:43.585Z,6.60
2018-11-25T03:08:47.272Z,6.60
2018-11-25T03:13:51.252Z,6.70
2018-11-25T03:18:55.310Z,6.70
2018-11-25T03:23:58.880Z,6.80
2018-11-25T03:29:02.727Z,6.70
2018-11-25T03:34:06.902Z,6.70
2018-11-25T03:39:10.450Z,6.70
2018-11-25T03:44:14.012Z,6.90
2018-11-25T03:49:18.449Z,6.80
2018-11-25T03:54:21.999Z,6.70
2018-11-25T03:59:26.243Z,6.70
2018-11-25T04:04:30.336Z,6.60
2018-11-25T04:09:33.892Z,6.70
2018-11-25T04:14:37.496Z,6.70
2018-11-25T04:19:41.902Z,6.70
2018-11-25T04:24:45.465Z,6.60
2018-11-25T04:29:49.793Z,6.50
2018-11-25T04:34:53.685Z,6.50
2018-11-25T04:39:57.292Z,6.60
2018-11-25T04:45:02.483Z,6.70
2018-11-25T04:50:10.256Z,6.70
2018-11-25T04:55:13.973Z,6.80
2018-11-25T05:00:17.577Z,6.80
2018-11-25T05:05:21.126Z,6.90
2018-11-25T05:10:24.795Z,6.80
2018-11-25T05:15:28.640Z,6.80
2018-11-25T05:20:32.452Z,6.90
2018-11-25T05:25:36.202Z,6.90
2018-11-25T05:30:40.073Z,6.90
2018-11-25T05:35:43.902Z,6.90
2018-11-25T05:40:47.461Z,6.70
2018-11-25T05:45:51.077Z,6.70
2018-11-25T05:50:58.347Z,6.70
2018-11-25T05:56:01.913Z,6.60
2018-11-25T06:01:05.578Z,6.60
2018-11-25T06:06:09.120Z,6.70
2018-11-25T06:11:13.197Z,6.80
2018-11-25T06:16:16.764Z,6.80
2018-11-25T06:21:20.355Z,6.70
2018-11-25T06:26:23.980Z,6.90
2018-11-25T06:31:28.674Z,6.80
2018-11-25T06:36:32.248Z,6.80
2018-11-25T06:41:36.533Z,6.70
2018-11-25T06:46:41.372Z,6.70
2018-11-25T06:51:45.512Z,6.70
2018-11-25T06:56:49.233Z,6.70
2018-11-25T07:01:52.808Z,6.80
2018-11-25T07:06:57.043Z,6.70
2018-11-25T07:12:00.673Z,6.60
2018-11-25T07:17:04.281Z,6.70
2018-11-25T07:22:07.845Z,6.70
2018-11-25T07:27:11.430Z,6.80
2018-11-25T07:32:15.071Z,6.80
2018-11-25T07:37:18.664Z,6.60
2018-11-25T07:42:22.546Z,6.70
2018-11-25T07:47:26.213Z,6.60
2018-11-25T07:52:29.795Z,6.50
2018-11-25T07:57:33.429Z,6.30
2018-11-25T08:02:41.612Z,6.40
2018-11-25T08:07:40.657Z,6.40
2018-11-25T08:12:45.012Z,6.40
2018-11-25T08:17:48.673Z,6.40
2018-11-25T08:22:52.274Z,6.50
2018-11-25T08:27:58.066Z,6.50
2018-11-25T08:33:01.616Z,6.70
2018-11-25T08:38:05.244Z,6.60
2018-11-25T08:43:08.857Z,6.60
2018-11-25T08:48:12.838Z,6.60
2018-11-25T08:53:16.406Z,6.80
2018-11-25T08:58:20.050Z,6.90
2018-11-25T09:03:23.594Z,6.90
2018-11-25T09:08:27.184Z,7.10
2018-11-25T09:13:30.989Z,7.10
2018-11-25T09:18:34.583Z,7.00
2018-11-25T09:23:48.561Z,7.00
2018-11-25T09:28:52.360Z,7.10
2018-11-25T09:33:56.780Z,7.00
2018-11-25T09:38:59.437Z,7.00
2018-11-25T09:44:03.236Z,7.00
2018-11-25T09:49:06.924Z,7.30
2018-11-25T09:54:10.512Z,7.40
2018-11-25T09:59:14.171Z,7.40
2018-11-25T10:04:18.012Z,7.50
2018-11-25T10:09:21.788Z,7.50
2018-11-25T10:14:25.946Z,7.50
2018-11-25T10:19:29.757Z,7.40
2018-11-25T10:24:33.336Z,7.40
2018-11-25T10:29:37.013Z,7.60
2018-11-25T10:34:40.998Z,7.50
2018-11-25T10:39:44.641Z,7.50
2018-11-25T10:44:48.324Z,7.80
2018-11-25T10:49:52.796Z,8.10
2018-11-25T10:54:56.467Z,8.20
2018-11-25T11:00:00.183Z,8.70
2018-11-25T11:05:05.456Z,9.90
2018-11-25T11:10:10.304Z,9.70
2018-11-25T11:15:13.922Z,9.90
2018-11-25T11:20:17.766Z,10.70
2018-11-25T11:25:21.393Z,12.20
2018-11-25T11:30:25.147Z,12.00
2018-11-25T11:35:29.112Z,11.60
2018-11-25T11:40:32.818Z,10.90
2018-11-25T11:45:37.286Z,10.40
2018-11-25T11:50:40.905Z,10.20
2018-11-25T11:55:45.772Z,9.90
2018-11-25T12:00:49.612Z,9.20
2018-11-25T12:06:06.944Z,8.80
2018-11-25T12:11:10.498Z,8.20
2018-11-25T12:16:14.279Z,8.00
2018-11-25T12:21:18.073Z,8.00
2018-11-25T12:26:21.667Z,7.80
2018-11-25T12:31:25.249Z,7.60
2018-11-25T12:36:28.936Z,7.60
2018-11-25T12:41:32.559Z,7.70
2018-11-25T12:46:36.176Z,7.50
2018-11-25T12:51:41.293Z,7.30
2018-11-25T12:56:51.700Z,7.30
2018-11-25T13:01:48.932Z,7.70
2018-11-25T13:06:52.548Z,7.70
2018-11-25T13:11:56.109Z,7.50
2018-11-25T13:16:59.758Z,7.40
2018-11-25T13:22:03.406Z,7.40
2018-11-25T13:27:07.003Z,7.50
2018-11-25T13:32:10.635Z,7.70
2018-11-25T13:37:14.516Z,7.70
2018-11-25T13:42:18.123Z,7.60
2018-11-25T13:47:21.801Z,7.70
2018-11-25T13:52:25.366Z,7.80
2018-11-25T13:57:28.942Z,7.80
2018-11-25T14:02:32.536Z,7.80
2018-11-25T14:07:36.408Z,8.00
2018-11-25T14:12:39.988Z,8.20
2018-11-25T14:17:43.669Z,8.50
2018-11-25T14:22:53.290Z,8.60
2018-11-25T14:27:59.073Z,8.60
2018-11-25T14:33:02.656Z,8.70
2018-11-25T14:38:06.960Z,8.80
2018-11-25T14:43:10.885Z,8.80
2018-11-25T14:48:14.758Z,8.70
2018-11-25T14:53:18.559Z,8.70
2018-11-25T14:58:22.142Z,8.60
2018-11-25T15:03:25.757Z,8.50
2018-11-25T15:08:29.548Z,8.50
2018-11-25T15:13:33.128Z,8.40
2018-11-25T15:18:37.084Z,8.40
2018-11-25T15:23:40.780Z,8.20
2018-11-25T15:28:44.689Z,8.10
2018-11-25T15:33:48.611Z,8.00
2018-11-25T15:38:52.306Z,7.80
2018-11-25T15:43:56.020Z,7.70
2018-11-25T15:49:00.031Z,7.40
2018-11-25T15:54:03.963Z,7.10
2018-11-25T15:59:07.956Z,7.10
2018-11-25T16:04:11.926Z,7.00
2018-11-25T16:09:15.686Z,6.80
2018-11-25T16:14:19.496Z,6.80
2018-11-25T16:19:23.496Z,6.70
2018-11-25T16:24:27.205Z,6.60
2018-11-25T16:29:30.972Z,6.10
2018-11-25T16:34:34.842Z,6.00
2018-11-25T16:39:38.812Z,5.90
2018-11-25T16:44:46.522Z,5.90
2018-11-25T16:49:50.543Z,5.90
2018-11-25T16:54:54.170Z,6.00
2018-11-25T17:00:01.397Z,6.00
2018-11-25T17:05:18.242Z,6.00
2018-11-25T17:10:21.881Z,5.70
2018-11-25T17:15:27.297Z,5.70
2018-11-25T17:20:30.972Z,5.70
2018-11-25T17:25:34.624Z,5.80
2018-11-25T17:30:38.337Z,5.80
2018-11-25T17:35:42.089Z,6.00
2018-11-25T17:40:45.733Z,6.00
2018-11-25T17:45:49.853Z,6.00
2018-11-25T17:50:53.537Z,5.80
2018-11-25T17:55:57.172Z,5.60
2018-11-25T18:01:04.823Z,5.60
2018-11-25T18:06:08.459Z,5.70
2018-11-25T18:11:12.065Z,5.60
2018-11-25T18:16:15.698Z,5.50
2018-11-25T18:21:23.213Z,5.60
2018-11-25T18:26:27.076Z,5.60
2018-11-25T18:31:30.665Z,5.50
2018-11-25T18:36:34.259Z,5.60
2018-11-25T18:41:37.943Z,5.50
2018-11-25T18:46:46.572Z,5.60
2018-11-25T18:51:45.434Z,5.80
2018-11-25T18:56:49.284Z,5.90
2018-11-25T19:01:57.891Z,6.00
2018-11-25T19:07:01.501Z,6.00
2018-11-25T19:12:05.461Z,6.10
2018-11-25T19:17:09.050Z,6.00
2018-11-25T19:22:12.636Z,6.10
2018-11-25T19:27:16.762Z,6.30
2018-11-25T19:32:20.531Z,6.20
2018-11-25T19:37:24.354Z,6.10
2018-11-25T19:42:28.094Z,5.90
2018-11-25T19:47:31.952Z,5.80
2018-11-25T19:52:36.643Z,5.60
2018-11-25T19:57:40.828Z,5.60
2018-11-25T20:02:44.694Z,5.70
2018-11-25T20:07:48.742Z,5.50
2018-11-25T20:12:55.677Z,5.00
2018-11-25T20:18:00.333Z,4.90
2018-11-25T20:23:09.252Z,4.80
2018-11-25T20:28:13.423Z,4.90
2018-11-25T20:33:22.652Z,4.70
2018-11-25T20:38:31.775Z,4.90
2018-11-25T20:43:35.456Z,5.30
2018-11-25T20:48:39.345Z,5.60
2018-11-25T20:53:48.255Z,5.80
2018-11-25T20:58:52.606Z,5.90
2018-11-25T21:03:56.203Z,6.10
2018-11-25T21:09:00.426Z,6.10
2018-11-25T21:14:04.027Z,6.20
2018-11-25T21:19:07.577Z,5.90
2018-11-25T21:24:11.201Z,6.00
2018-11-25T21:29:14.776Z,6.10
2018-11-25T21:34:18.478Z,6.10
2018-11-25T21:39:22.112Z,6.10
2018-11-25T21:44:25.697Z,6.20
2018-11-25T21:49:29.801Z,6.30
2018-11-25T21:54:33.366Z,6.30
2018-11-25T21:59:37.210Z,6.40
2018-11-25T22:04:40.824Z,6.30
2018-11-25T22:09:44.560Z,6.30
2018-11-25T22:14:48.139Z,6.40
2018-11-25T22:19:51.973Z,6.40
2018-11-25T22:24:55.582Z,6.30
2018-11-25T22:30:04.101Z,6.40
2018-11-25T22:35:10.551Z,6.50
2018-11-25T22:40:15.307Z,6.50
2018-11-25T22:45:21.408Z,6.50
2018-11-25T22:50:27.640Z,6.40
2018-11-25T22:55:28.677Z,6.40
2018-11-25T23:00:34.873Z,6.30
2018-11-25T23:05:49.685Z,6.20
2018-11-25T23:10:53.592Z,6.20
2018-11-25T23:15:57.429Z,6.20
2018-11-25T23:21:01.541Z,6.30
2018-11-25T23:26:05.379Z,6.40
2018-11-25T23:31:09.677Z,6.50
2018-11-25T23:36:15.643Z,6.60
2018-11-25T23:41:19.466Z,6.60
2018-11-25T23:46:23.071Z,6.60
2018-11-25T23:51:26.910Z,6.50
2018-11-25T23:56:31.328Z,6.40
